createdAt,value
2024-03-12T00:00:39.476Z,6.10
2024-03-12T00:03:44.249Z,6.14
2024-03-12T00:06:46.594Z,6.12
2024-03-12T00:09:48.422Z,6.04
2024-03-12T00:12:53.132Z,6.06
2024-03-12T00:15:55.856Z,6.04
2024-03-12T00:18:57.632Z,6.07
2024-03-12T00:21:59.294Z,6.13
2024-03-12T00:25:01.356Z,6.16
2024-03-12T00:28:07.243Z,6.23
2024-03-12T00:31:10.284Z,6.31
2024-03-12T00:34:12.119Z,6.38
2024-03-12T00:37:13.920Z,6.43
2024-03-12T00:40:15.683Z,6.45
2024-03-12T00:43:19.101Z,6.47
2024-03-12T00:46:22.240Z,6.49
2024-03-12T00:49:24.010Z,6.51
2024-03-12T00:52:25.646Z,6.55
2024-03-12T00:55:29.509Z,6.56
2024-03-12T00:58:35.079Z,6.59
2024-03-12T01:01:36.785Z,6.63
2024-03-12T01:04:41.346Z,6.66
2024-03-12T01:07:43.063Z,6.64
2024-03-12T01:10:44.756Z,6.61
2024-03-12T01:13:48.792Z,6.61
2024-03-12T01:16:50.444Z,6.64
2024-03-12T01:19:52.168Z,6.68
2024-03-12T01:22:55.449Z,6.66
2024-03-12T01:25:57.233Z,6.64
2024-03-12T01:29:00.169Z,6.62
2024-03-12T01:32:01.841Z,6.64
2024-03-12T01:35:09.887Z,6.66
2024-03-12T01:38:13.977Z,6.64
2024-03-12T01:41:16.577Z,6.61
2024-03-12T01:44:19.621Z,6.60
2024-03-12T01:47:21.564Z,6.60
2024-03-12T01:50:25.561Z,6.59
2024-03-12T01:53:27.307Z,6.60
2024-03-12T01:56:29.142Z,6.57
2024-03-12T01:59:32.186Z,6.53
2024-03-12T02:02:33.824Z,6.52
2024-03-12T02:05:35.897Z,6.52
2024-03-12T02:08:37.997Z,6.47
2024-03-12T02:11:41.410Z,6.43
2024-03-12T02:14:44.584Z,6.43
2024-03-12T02:17:46.775Z,6.43
2024-03-12T02:20:48.477Z,6.43
2024-03-12T02:23:51.469Z,6.40
2024-03-12T02:26:54.489Z,6.37
2024-03-12T02:29:56.344Z,6.38
2024-03-12T02:32:58.036Z,6.37
2024-03-12T02:35:59.994Z,6.35
2024-03-12T02:39:04.944Z,6.33
2024-03-12T02:42:06.827Z,6.30
2024-03-12T02:45:08.931Z,6.32
2024-03-12T02:48:11.005Z,6.32
2024-03-12T02:51:13.971Z,6.28
2024-03-12T02:54:17.397Z,6.26
2024-03-12T02:57:19.058Z,6.23
2024-03-12T03:00:20.845Z,6.21
2024-03-12T03:03:25.411Z,6.15
2024-03-12T03:06:27.214Z,6.15
2024-03-12T03:09:30.779Z,6.13
2024-03-12T03:12:32.585Z,6.13
2024-03-12T03:15:34.300Z,6.12
2024-03-12T03:18:35.988Z,6.08
2024-03-12T03:21:37.628Z,6.07
2024-03-12T03:24:40.824Z,6.05
2024-03-12T03:27:43.261Z,6.06
2024-03-12T03:30:45.243Z,6.06
2024-03-12T03:33:48.671Z,6.07
2024-03-12T03:36:50.494Z,6.09
2024-03-12T03:39:54.741Z,6.13
2024-03-12T03:42:57.830Z,6.14
2024-03-12T03:45:59.803Z,6.15
2024-03-12T03:49:01.556Z,6.09
2024-03-12T03:52:03.383Z,6.07
2024-03-12T03:55:07.479Z,6.07
2024-03-12T03:58:09.466Z,6.00
2024-03-12T04:01:11.884Z,5.95
2024-03-12T04:04:16.733Z,5.90
2024-03-12T04:07:20.779Z,5.86
2024-03-12T04:10:23.892Z,5.83
2024-03-12T04:13:25.537Z,5.83
2024-03-12T04:16:27.198Z,5.82
2024-03-12T04:19:33.204Z,5.82
2024-03-12T04:22:34.793Z,5.79
2024-03-12T04:25:37.797Z,5.77
2024-03-12T04:28:39.984Z,5.76
2024-03-12T04:31:41.595Z,5.75
2024-03-12T04:34:43.209Z,5.72
2024-03-12T04:37:45.704Z,5.72
2024-03-12T04:40:49.104Z,5.72
2024-03-12T04:43:50.789Z,5.68
2024-03-12T04:46:52.470Z,5.66
2024-03-12T04:49:55.144Z,5.64
2024-03-12T04:52:56.800Z,5.64
2024-03-12T04:56:00.668Z,5.62
2024-03-12T04:59:02.305Z,5.60
2024-03-12T05:02:04.025Z,5.59
2024-03-12T05:05:08.720Z,5.60
2024-03-12T05:08:10.397Z,5.59
2024-03-12T05:11:15.200Z,5.60
2024-03-12T05:14:17.300Z,5.64
2024-03-12T05:17:19.191Z,5.68
2024-03-12T05:20:24.686Z,5.71
2024-03-12T05:23:26.758Z,5.73
2024-03-12T05:26:35.258Z,5.72
2024-03-12T05:29:44.424Z,5.72
2024-03-12T05:32:49.483Z,5.73
2024-03-12T05:35:53.301Z,5.75
2024-03-12T05:39:05.681Z,5.74
2024-03-12T05:42:34.836Z,5.77
2024-03-12T05:45:55.249Z,5.78
2024-03-12T05:48:56.994Z,5.81
2024-03-12T05:51:59.227Z,5.82
2024-03-12T05:55:00.991Z,5.82
2024-03-12T05:58:05.936Z,5.81
2024-03-12T06:01:08.242Z,5.82
2024-03-12T06:04:10.220Z,5.83
2024-03-12T06:07:13.690Z,5.85
2024-03-12T06:10:15.972Z,5.87
2024-03-12T06:13:19.225Z,5.87
2024-03-12T06:16:21.801Z,5.88
2024-03-12T06:19:23.514Z,5.89
2024-03-12T06:22:25.228Z,5.89
2024-03-12T06:25:27.151Z,5.91
2024-03-12T06:28:32.337Z,5.89
2024-03-12T06:31:36.046Z,5.90
2024-03-12T06:34:37.682Z,5.91
2024-03-12T06:37:39.316Z,5.90
2024-03-12T06:40:40.996Z,5.90
2024-03-12T06:43:44.117Z,5.92
2024-03-12T06:46:46.954Z,5.93
2024-03-12T06:49:49.049Z,5.92
2024-03-12T06:52:52.210Z,5.94
2024-03-12T06:55:53.885Z,5.96
2024-03-12T06:58:58.098Z,5.96
2024-03-12T07:02:00.685Z,5.96
2024-03-12T07:05:04.131Z,5.97
2024-03-12T07:08:06.538Z,5.99
2024-03-12T07:11:09.240Z,5.99
2024-03-12T07:14:28.507Z,5.99
2024-03-12T07:17:31.799Z,6.03
2024-03-12T07:20:35.779Z,6.06
2024-03-12T07:23:38.014Z,6.15
2024-03-12T07:26:40.232Z,6.22
2024-03-12T07:29:44.742Z,6.26
2024-03-12T07:32:48.265Z,6.28
2024-03-12T07:35:50.134Z,6.27
2024-03-12T07:38:51.729Z,6.30
2024-03-12T07:41:54.149Z,6.38
2024-03-12T07:44:58.373Z,6.39
2024-03-12T07:48:00.518Z,6.35
2024-03-12T07:51:03.411Z,6.33
2024-03-12T07:54:07.882Z,6.34
2024-03-12T07:57:09.869Z,6.35
2024-03-12T08:00:17.884Z,6.38
2024-03-12T08:03:20.134Z,6.40
2024-03-12T08:06:22.524Z,6.39
2024-03-12T08:09:24.430Z,6.43
2024-03-12T08:12:26.350Z,6.44
2024-03-12T08:15:29.447Z,6.43
2024-03-12T08:18:31.290Z,6.43
2024-03-12T08:21:33.335Z,6.42
2024-03-12T08:24:35.518Z,6.39
2024-03-12T08:27:37.221Z,6.36
2024-03-12T08:30:40.450Z,6.36
2024-03-12T08:33:42.808Z,6.37
2024-03-12T08:36:44.838Z,6.36
2024-03-12T08:39:48.053Z,6.35
2024-03-12T08:42:57.625Z,6.36
2024-03-12T08:46:07.744Z,6.38
2024-03-12T08:49:12.233Z,6.40
2024-03-12T08:52:14.502Z,6.42
2024-03-12T08:55:18.024Z,6.42
2024-03-12T08:58:20.045Z,6.35
2024-03-12T09:01:23.168Z,6.34
2024-03-12T09:04:25.250Z,6.31
2024-03-12T09:07:27.138Z,6.28
2024-03-12T09:10:28.924Z,6.29
2024-03-12T09:13:32.402Z,6.29
2024-03-12T09:16:35.624Z,6.30
2024-03-12T09:19:37.870Z,6.32
2024-03-12T09:22:40.667Z,6.42
2024-03-12T09:25:43.211Z,6.46
2024-03-12T09:28:44.842Z,6.49
2024-03-12T09:31:47.850Z,6.47
2024-03-12T09:34:49.512Z,6.46
2024-03-12T09:37:51.431Z,6.39
2024-03-12T09:40:54.316Z,6.38
2024-03-12T09:43:55.977Z,6.39
2024-03-12T09:46:59.806Z,6.42
2024-03-12T09:50:04.868Z,6.44
2024-03-12T09:53:07.818Z,6.44
2024-03-12T09:56:09.539Z,6.40
2024-03-12T09:59:11.404Z,6.39
2024-03-12T10:02:16.078Z,6.40
2024-03-12T10:05:17.993Z,6.44
2024-03-12T10:08:19.804Z,6.43
2024-03-12T10:11:21.504Z,6.42
2024-03-12T10:14:25.845Z,6.45
2024-03-12T10:17:28.851Z,6.47
2024-03-12T10:20:32.086Z,6.53
2024-03-12T10:23:35.143Z,6.60
2024-03-12T10:26:37.154Z,6.58
2024-03-12T10:29:38.843Z,6.53
2024-03-12T10:32:42.102Z,6.49
2024-03-12T10:35:45.548Z,6.48
2024-03-12T10:38:50.493Z,6.45
2024-03-12T10:41:55.725Z,6.47
2024-03-12T10:44:58.636Z,6.44
2024-03-12T10:48:04.586Z,6.49
2024-03-12T10:51:06.394Z,6.45
2024-03-12T10:54:12.948Z,6.42
2024-03-12T10:57:14.660Z,6.42
2024-03-12T11:00:23.742Z,6.40
2024-03-12T11:03:27.492Z,6.38
2024-03-12T11:06:30.628Z,6.41
2024-03-12T11:09:33.360Z,6.47
2024-03-12T11:12:35.214Z,6.48
2024-03-12T11:15:37.602Z,6.50
2024-03-12T11:18:40.877Z,6.53
2024-03-12T11:21:43.178Z,6.61
2024-03-12T11:24:46.136Z,6.62
2024-03-12T11:27:47.957Z,6.66
2024-03-12T11:30:59.548Z,6.57
2024-03-12T11:34:02.652Z,6.53
2024-03-12T11:37:13.507Z,6.46
2024-03-12T11:40:27.975Z,6.39
2024-03-12T11:43:39.006Z,6.36
2024-03-12T11:46:45.406Z,6.34
2024-03-12T11:49:49.954Z,6.31
2024-03-12T11:52:52.276Z,6.26
2024-03-12T11:56:02.929Z,6.26
2024-03-12T11:59:12.061Z,6.25
2024-03-12T12:02:22.074Z,6.24
2024-03-12T12:05:28.053Z,6.20
2024-03-12T12:08:31.523Z,6.21
2024-03-12T12:11:38.455Z,6.17
2024-03-12T12:14:41.298Z,6.09
2024-03-12T12:17:43.931Z,6.12
2024-03-12T12:20:47.270Z,6.13
2024-03-12T12:23:49.199Z,6.20
2024-03-12T12:26:51.247Z,6.28
2024-03-12T12:29:54.737Z,6.38
2024-03-12T12:33:00.175Z,6.43
2024-03-12T12:36:09.470Z,6.41
2024-03-12T12:39:12.659Z,6.37
2024-03-12T12:42:15.753Z,6.34
2024-03-12T12:45:17.697Z,6.37
2024-03-12T12:48:19.797Z,6.37
2024-03-12T12:51:26.283Z,6.37
2024-03-12T12:54:28.926Z,6.46
2024-03-12T12:57:34.349Z,6.46
2024-03-12T13:00:41.549Z,6.46
2024-03-12T13:03:47.798Z,6.53
2024-03-12T13:06:50.996Z,6.52
2024-03-12T13:09:53.235Z,6.52
2024-03-12T13:12:55.142Z,6.48
2024-03-12T13:16:12.636Z,6.41
2024-03-12T13:19:14.365Z,6.39
2024-03-12T13:22:22.783Z,6.36
2024-03-12T13:25:24.936Z,6.36
2024-03-12T13:28:26.632Z,6.37
2024-03-12T13:31:28.289Z,6.31
2024-03-12T13:34:29.879Z,6.29
2024-03-12T13:37:33.212Z,6.29
2024-03-12T13:40:34.791Z,6.32
2024-03-12T13:43:37.291Z,6.31
2024-03-12T13:46:43.000Z,6.31
2024-03-12T13:49:49.043Z,6.29
2024-03-12T13:52:53.152Z,6.25
2024-03-12T13:55:55.252Z,6.25
2024-03-12T13:58:57.190Z,6.20
2024-03-12T14:01:59.180Z,6.17
2024-03-12T14:05:02.846Z,6.11
2024-03-12T14:08:07.615Z,6.12
2024-03-12T14:11:09.257Z,6.11
2024-03-12T14:14:11.140Z,6.07
2024-03-12T14:17:14.055Z,6.04
2024-03-12T14:20:15.934Z,6.03
2024-03-12T14:23:19.991Z,6.01
2024-03-12T14:26:22.359Z,5.99
2024-03-12T14:29:23.919Z,5.96
2024-03-12T14:32:25.500Z,5.95
2024-03-12T14:35:27.191Z,5.96
2024-03-12T14:38:30.820Z,5.92
2024-03-12T14:41:33.809Z,5.87
2024-03-12T14:44:37.068Z,5.81
2024-03-12T14:47:39.350Z,5.77
2024-03-12T14:50:42.314Z,5.77
2024-03-12T14:53:45.736Z,5.77
2024-03-12T14:56:48.005Z,5.81
2024-03-12T14:59:49.792Z,5.81
2024-03-12T15:02:51.444Z,5.81
2024-03-12T15:05:55.541Z,5.83
2024-03-12T15:08:59.314Z,5.82
2024-03-12T15:12:01.682Z,5.80
2024-03-12T15:15:03.566Z,5.80
2024-03-12T15:18:05.889Z,5.77
2024-03-12T15:21:08.658Z,5.77
2024-03-12T15:24:12.540Z,5.77
2024-03-12T15:27:16.969Z,5.75
2024-03-12T15:30:18.624Z,5.73
2024-03-12T15:33:20.346Z,5.73
2024-03-12T15:36:22.179Z,5.79
2024-03-12T15:39:25.323Z,5.83
2024-03-12T15:42:28.216Z,5.83
2024-03-12T15:45:29.849Z,5.85
2024-03-12T15:48:31.513Z,5.87
2024-03-12T15:51:33.471Z,5.87
2024-03-12T15:54:38.183Z,5.86
2024-03-12T15:57:41.656Z,5.88
2024-03-12T16:00:43.801Z,5.88
2024-03-12T16:03:45.657Z,5.88
2024-03-12T16:06:47.993Z,5.90
2024-03-12T16:09:51.485Z,5.93
2024-03-12T16:12:53.379Z,5.92
2024-03-12T16:15:55.263Z,5.90
2024-03-12T16:18:57.238Z,5.88
2024-03-12T16:22:01.357Z,5.85
2024-03-12T16:25:04.728Z,5.82
2024-03-12T16:28:06.703Z,5.81
2024-03-12T16:31:09.270Z,5.80
2024-03-12T16:34:11.126Z,5.77
2024-03-12T16:37:14.883Z,5.78
2024-03-12T16:40:18.130Z,5.76
2024-03-12T16:43:20.047Z,5.74
2024-03-12T16:46:21.945Z,5.73
2024-03-12T16:49:23.888Z,5.72
2024-03-12T16:52:25.766Z,5.70
2024-03-12T16:55:29.151Z,5.70
2024-03-12T16:58:31.225Z,5.73
2024-03-12T17:01:37.553Z,5.70
2024-03-12T17:04:39.719Z,5.67
2024-03-12T17:07:42.582Z,5.64
2024-03-12T17:10:45.944Z,5.56
2024-03-12T17:13:47.840Z,5.48
2024-03-12T17:16:51.842Z,5.42
2024-03-12T17:19:53.871Z,5.48
2024-03-12T17:22:55.811Z,5.50
2024-03-12T17:25:59.869Z,5.50
2024-03-12T17:29:01.873Z,5.55
2024-03-12T17:32:05.905Z,5.55
2024-03-12T17:35:10.442Z,5.55
2024-03-12T17:38:16.422Z,5.51
2024-03-12T17:41:20.108Z,5.48
2024-03-12T17:44:22.101Z,5.41
2024-03-12T17:47:23.706Z,5.34
2024-03-12T17:50:26.462Z,5.29
2024-03-12T17:53:28.306Z,5.23
2024-03-12T17:56:33.308Z,5.20
2024-03-12T17:59:38.991Z,5.12
2024-03-12T18:02:40.882Z,5.10
2024-03-12T18:05:43.088Z,5.06
2024-03-12T18:08:50.828Z,5.03
2024-03-12T18:11:54.547Z,4.95
2024-03-12T18:14:56.217Z,4.87
2024-03-12T18:17:58.013Z,4.79
2024-03-12T18:20:59.735Z,4.86
2024-03-12T18:24:01.800Z,4.83
2024-03-12T18:27:07.528Z,4.74
2024-03-12T18:30:10.970Z,4.66
2024-03-12T18:33:13.771Z,4.55
2024-03-12T18:36:15.448Z,4.45
2024-03-12T18:39:18.681Z,4.40
2024-03-12T18:42:21.690Z,4.40
2024-03-12T18:45:24.817Z,4.39
2024-03-12T18:48:31.542Z,4.38
2024-03-12T18:51:36.166Z,4.42
2024-03-12T18:54:39.012Z,4.43
2024-03-12T18:57:43.543Z,4.44
2024-03-12T19:00:45.718Z,4.45
2024-03-12T19:03:51.143Z,4.43
2024-03-12T19:06:53.191Z,4.41
2024-03-12T19:09:55.336Z,4.33
2024-03-12T19:12:59.139Z,4.35
2024-03-12T19:16:01.222Z,4.38
2024-03-12T19:19:04.413Z,4.35
2024-03-12T19:22:07.286Z,4.42
2024-03-12T19:25:10.791Z,4.44
2024-03-12T19:28:15.334Z,4.43
2024-03-12T19:31:17.465Z,4.44
2024-03-12T19:34:19.714Z,4.42
2024-03-12T19:37:22.878Z,4.40
2024-03-12T19:40:24.791Z,4.39
2024-03-12T19:43:29.858Z,4.30
2024-03-12T19:46:31.795Z,4.26
2024-03-12T19:49:43.564Z,4.24
2024-03-12T19:52:48.201Z,4.12
2024-03-12T19:55:52.353Z,4.02
2024-03-12T19:58:55.480Z,3.97
2024-03-12T20:02:00.568Z,3.96
2024-03-12T20:05:02.351Z,3.92
2024-03-12T20:08:06.022Z,3.86
2024-03-12T20:11:11.315Z,3.81
2024-03-12T20:14:14.377Z,3.76
2024-03-12T20:17:16.071Z,3.70
2024-03-12T20:20:22.577Z,3.63
2024-03-12T20:23:24.192Z,3.58
2024-03-12T20:26:26.261Z,3.53
2024-03-12T20:29:32.941Z,3.47
2024-03-12T20:32:34.553Z,3.51
2024-03-12T20:35:38.875Z,3.60
2024-03-12T20:38:42.925Z,3.56
2024-03-12T20:41:44.591Z,3.56
2024-03-12T20:44:47.837Z,3.52
2024-03-12T20:47:49.981Z,3.49
2024-03-12T20:50:51.800Z,3.44
2024-03-12T20:53:54.117Z,3.44
2024-03-12T20:56:58.329Z,3.42
2024-03-12T21:00:01.909Z,3.44
2024-03-12T21:03:10.065Z,3.44
2024-03-12T21:06:13.359Z,3.45
2024-03-12T21:09:26.912Z,3.62
2024-03-12T21:12:28.514Z,3.67
2024-03-12T21:15:31.534Z,3.71
2024-03-12T21:18:33.138Z,3.74
2024-03-12T21:21:34.902Z,3.74
2024-03-12T21:24:37.681Z,3.77
2024-03-12T21:27:39.470Z,3.77
2024-03-12T21:30:43.551Z,3.79
2024-03-12T21:33:45.754Z,3.81
2024-03-12T21:36:47.412Z,3.77
2024-03-12T21:39:49.339Z,3.74
2024-03-12T21:42:51.604Z,3.74
2024-03-12T21:45:55.107Z,3.70
2024-03-12T21:48:57.021Z,3.68
2024-03-12T21:51:59.263Z,3.68
2024-03-12T21:55:01.739Z,3.69
2024-03-12T21:58:05.255Z,3.62
2024-03-12T22:01:08.291Z,3.58
2024-03-12T22:04:10.014Z,3.57
2024-03-12T22:07:13.108Z,3.55
2024-03-12T22:10:15.323Z,3.47
2024-03-12T22:13:27.912Z,3.47
2024-03-12T22:16:35.991Z,3.53
2024-03-12T22:19:39.251Z,3.55
2024-03-12T22:22:40.847Z,3.57
2024-03-12T22:25:44.681Z,3.55
2024-03-12T22:28:48.879Z,3.54
2024-03-12T22:31:51.900Z,3.54
2024-03-12T22:34:54.320Z,3.55
2024-03-12T22:37:57.017Z,3.52
2024-03-12T22:40:58.988Z,3.49
2024-03-12T22:44:00.848Z,3.49
2024-03-12T22:47:08.788Z,3.50
2024-03-12T22:50:10.967Z,3.60
2024-03-12T22:53:13.640Z,3.63
2024-03-12T22:56:18.480Z,3.64
2024-03-12T22:59:20.544Z,3.69
2024-03-12T23:02:23.884Z,3.68
2024-03-12T23:05:28.876Z,3.68
2024-03-12T23:08:31.110Z,3.68
2024-03-12T23:11:32.837Z,3.64
2024-03-12T23:14:35.774Z,3.66
2024-03-12T23:17:38.905Z,3.66
2024-03-12T23:20:41.612Z,3.68
2024-03-12T23:23:45.810Z,3.70
2024-03-12T23:26:48.154Z,3.63
2024-03-12T23:29:51.339Z,3.58
2024-03-12T23:32:59.061Z,3.55
2024-03-12T23:36:01.083Z,3.55
2024-03-12T23:39:02.734Z,3.54
2024-03-12T23:42:04.472Z,3.65
2024-03-12T23:45:10.086Z,3.70
2024-03-12T23:48:13.710Z,3.72
2024-03-12T23:51:15.546Z,3.77
2024-03-12T23:54:18.528Z,3.79
2024-03-12T23:57:20.338Z,3.73
